Tuesday, August 21, 2018, 9:55 AM EDT
Back to Local

KDXR, Danbury Municipal Airport

Location: Danbury, CT, United States Lat: 41.367
Local Time: 9:55 AM EDT (13:55 GMT) Lon: -73.483
Time Zone: US/Eastern Elev: 459 ft

Show me the last for .
Show Decoded

2018-08-21 08:53 METAR KDXR 211253Z 07007KT 10SM CLR 19/16 A3014 RMK AO2 SLP202 T01890161 =
2018-08-21 08:41 METAR KDXR 211241Z 09006KT 10SM CLR 19/16 A3014 RMK AO2 T01890161 =
2018-08-21 07:53 METAR KDXR 211153Z 08006KT 10SM CLR 18/16 A3014 RMK AO2 SLP203 T01780156 10194
                 20167 58002 =
2018-08-21 06:53 METAR KDXR 211053Z 09003KT 10SM OVC060 18/16 A3015 RMK AO2 SLP208 T01780156 =
2018-08-21 05:53 METAR KDXR 210953Z AUTO 00000KT 10SM BKN043 OVC060 17/16 A3015 RMK AO2 SLP206
                 T01670161 =
2018-08-21 04:53 METAR KDXR 210853Z AUTO 00000KT 10SM FEW030 BKN060 18/16 A3014 RMK AO2 SLP204
                 T01780156 56008 =
2018-08-21 04:21 METAR KDXR 210821Z AUTO 10003KT 10SM SCT028 OVC060 18/16 A3013 RMK AO2 T01830161
                 =
2018-08-21 04:03 METAR KDXR 210803Z AUTO 07003KT 10SM BKN028 OVC060 18/16 A3014 RMK AO2 T01830161
                 =
2018-08-21 03:53 METAR KDXR 210753Z AUTO 08003KT 10SM SCT028 OVC060 19/16 A3014 RMK AO2 SLP205
                 T01890161 =
2018-08-21 02:53 METAR KDXR 210653Z AUTO 12003KT 10SM BKN023 OVC030 19/17 A3015 RMK AO2 SLP208
                 T01940167 =
2018-08-21 01:25 METAR KDXR 210525Z AUTO 00000KT 10SM BKN014 BKN033 OVC065 19/18 A3017 RMK AO2
                 T01890183 =
2018-08-21 00:53 METAR KDXR 210453Z AUTO 00000KT 10SM SCT030 OVC065 18/18 A3017 RMK AO2 SLP214
                 T01830178 402390178 TSNO =
2018-08-21 00:00 METAR KDXR 210400Z AUTO 00000KT 10SM FEW023 SCT028 OVC065 19/18 A3017 RMK AO2
                 T01940183 =
2018-08-20 23:53 METAR KDXR 210353Z AUTO 00000KT 10SM SCT021 BKN028 OVC065 19/18 A3017 RMK AO2
                 SLP214 T01940183 =
2018-08-20 23:48 METAR KDXR 210348Z AUTO 00000KT 10SM FEW019 BKN025 OVC065 19/19 A3017 RMK AO2 =
2018-08-20 22:53 METAR KDXR 210253Z AUTO 00000KT 10SM OVC065 20/19 A3017 RMK AO2 SLP213 T02000189
                 50007 =
2018-08-20 21:53 METAR KDXR 210153Z AUTO 00000KT 10SM OVC065 20/19 A3017 RMK AO2 SLP215 T02000189
                 =
2018-08-20 20:53 METAR KDXR 210053Z 00000KT 10SM OVC060 21/19 A3016 RMK AO2 SLP211 T02060189 =
2018-08-20 19:53 METAR KDXR 202353Z 16003KT 10SM FEW046 OVC060 21/18 A3015 RMK AO2 SLP206
                 T02110183 10233 20211 53005 =
2018-08-20 18:53 METAR KDXR 202253Z 17004KT 10SM SCT037 22/18 A3014 RMK AO2 SLP204 T02170183 =
2018-08-20 17:53 METAR KDXR 202153Z 16004KT 10SM FEW060 23/18 A3013 RMK AO2 SLP201 T02280178 =
2018-08-20 16:53 METAR KDXR 202053Z 16004KT 10SM FEW060 SCT070 23/18 A3013 RMK AO2 SLP201
                 T02330178 58010 =
2018-08-20 15:53 METAR KDXR 201953Z 14003KT 10SM OVC055 22/18 A3015 RMK AO2 SLP207 T02170183 =
2018-08-20 14:53 METAR KDXR 201853Z 10004KT 10SM OVC050 22/17 A3016 RMK AO2 SLP210 T02220167 =
2018-08-20 13:53 METAR KDXR 201753Z VRB05KT 10SM BKN040 BKN060 23/17 A3016 RMK AO2 SLP211
                 T02330172 10239 20183 55003 =
2018-08-20 13:09 METAR KDXR 201709Z 06006KT 10SM SCT029 OVC036 22/17 A3016 RMK AO2 T02220167 =
2018-08-20 12:53 METAR KDXR 201653Z 06005KT 10SM BKN029 OVC034 22/17 A3016 RMK AO2 SLP210
                 T02220167 =
2018-08-20 12:16 METAR KDXR 201616Z 10007KT 10SM OVC032 22/17 A3015 RMK AO2 T02220172 =
2018-08-20 11:53 METAR KDXR 201553Z VRB04KT 10SM BKN027 OVC034 22/17 A3016 RMK AO2 SLP212
                 T02220167 =
2018-08-20 10:53 METAR KDXR 201453Z 06009KT 030V110 10SM BKN020 22/17 A3017 RMK AO2 SLP215
                 T02220167 51006 =

Support USWX by starting your Amazon purchase here.